Time;durP1;ratioP1;P1;durP2;ratioP2;P2;SDS_P1;SDS_P2;PMS_P1;PMS_P2;Temp;Humidity;BMP_temperature;BMP_pressure;BME280_temperature;BME280_humidity;BME280_pressure;Samples;Min_cycle;Max_cycle;Signal;HPM_P1;HPM_P2
2021/11/18 00:01:25;;;;;;;3.90;2.60;;;;;;;;;;4349057;32;20078;-74
2021/11/18 00:03:53;;;;;;;3.75;2.65;;;;;;;;;;4349816;32;20059;-72
2021/11/18 00:06:19;;;;;;;3.60;2.55;;;;;;;;;;4349321;32;20074;-73
2021/11/18 00:08:46;;;;;;;3.47;2.60;;;;;;;;;;4336823;32;20180;-72
2021/11/18 00:11:14;;;;;;;3.60;2.85;;;;;;;;;;4361580;32;20078;-72
2021/11/18 00:13:44;;;;;;;3.22;2.60;;;;;;;;;;4349382;32;20104;-73
2021/11/18 00:16:10;;;;;;;3.75;2.50;;;;;;;;;;4349209;32;20077;-72
2021/11/18 00:18:37;;;;;;;3.60;2.60;;;;;;;;;;4336745;32;20078;-74
2021/11/18 00:21:07;;;;;;;3.28;2.33;;;;;;;;;;4336670;32;20070;-72
2021/11/18 00:23:36;;;;;;;3.60;2.60;;;;;;;;;;4361737;32;20097;-73
2021/11/18 00:26:04;;;;;;;3.30;2.28;;;;;;;;;;4349322;32;20129;-72
2021/11/18 00:28:31;;;;;;;5.30;2.40;;;;;;;;;;4349202;32;20067;-73
2021/11/18 00:30:57;;;;;;;4.07;2.80;;;;;;;;;;4361287;32;20418;-73
2021/11/18 00:33:25;;;;;;;3.40;2.40;;;;;;;;;;4349257;32;20086;-73
2021/11/18 00:35:52;;;;;;;4.80;2.47;;;;;;;;;;4370593;32;20584;-73
2021/11/18 00:38:20;;;;;;;2.95;2.30;;;;;;;;;;4351955;32;20174;-73
2021/11/18 00:40:53;;;;;;;2.67;2.40;;;;;;;;;;4352700;32;20088;-73
2021/11/18 00:43:20;;;;;;;2.37;2.17;;;;;;;;;;4352982;32;20072;-73
2021/11/18 00:45:47;;;;;;;2.53;2.30;;;;;;;;;;4339337;32;20086;-73
2021/11/18 00:48:14;;;;;;;2.90;2.20;;;;;;;;;;4351320;32;20093;-72
2021/11/18 00:51:02;;;;;;;2.55;2.20;;;;;;;;;;4351577;32;20142;-73
2021/11/18 00:53:29;;;;;;;3.65;2.50;;;;;;;;;;4364015;32;20100;-71
2021/11/18 00:55:55;;;;;;;2.45;2.10;;;;;;;;;;4351607;32;20082;-73
2021/11/18 00:58:22;;;;;;;3.75;2.50;;;;;;;;;;4363807;32;20526;-72
2021/11/18 01:00:49;;;;;;;2.72;2.17;;;;;;;;;;4350990;32;20098;-72
2021/11/18 01:03:17;;;;;;;2.70;2.20;;;;;;;;;;4351085;32;20067;-73
2021/11/18 01:05:47;;;;;;;3.15;2.40;;;;;;;;;;4351618;32;20142;-72
2021/11/18 01:08:14;;;;;;;3.03;2.35;;;;;;;;;;4351322;32;20081;-73
2021/11/18 01:10:46;;;;;;;4.60;2.60;;;;;;;;;;4351396;32;20078;-71
2021/11/18 01:13:13;;;;;;;3.15;2.53;;;;;;;;;;4351428;32;20129;-73
2021/11/18 01:15:41;;;;;;;2.97;2.22;;;;;;;;;;4338670;32;20481;-73
2021/11/18 01:18:08;;;;;;;3.65;2.37;;;;;;;;;;4351445;32;20151;-73
2021/11/18 01:20:35;;;;;;;3.12;2.30;;;;;;;;;;4351330;32;20489;-72
2021/11/18 01:23:02;;;;;;;3.30;2.45;;;;;;;;;;4351693;32;20077;-73
2021/11/18 01:25:29;;;;;;;2.45;2.03;;;;;;;;;;4351104;32;20078;-74
2021/11/18 01:27:56;;;;;;;3.60;2.45;;;;;;;;;;4351138;32;20085;-72
2021/11/18 01:30:25;;;;;;;2.83;2.33;;;;;;;;;;4350446;32;20070;-73
2021/11/18 01:32:52;;;;;;;2.65;2.05;;;;;;;;;;4338870;32;20071;-73
2021/11/18 01:35:19;;;;;;;2.45;2.00;;;;;;;;;;4337967;32;20089;-73
2021/11/18 01:37:45;;;;;;;2.50;2.08;;;;;;;;;;4362891;32;20168;-72
2021/11/18 01:40:14;;;;;;;2.65;2.00;;;;;;;;;;4350920;32;20091;-72
2021/11/18 01:42:41;;;;;;;2.87;2.05;;;;;;;;;;4350670;32;20174;-72
2021/11/18 01:45:08;;;;;;;2.37;1.90;;;;;;;;;;4337519;32;20086;-72
2021/11/18 01:47:35;;;;;;;2.75;2.00;;;;;;;;;;4338885;32;20070;-72
2021/11/18 01:50:02;;;;;;;2.80;2.30;;;;;;;;;;4376816;32;20078;-73
2021/11/18 01:52:29;;;;;;;4.18;2.20;;;;;;;;;;4338707;32;20101;-73
2021/11/18 01:54:56;;;;;;;2.75;2.25;;;;;;;;;;4338134;32;20081;-72
2021/11/18 01:57:25;;;;;;;3.15;2.35;;;;;;;;;;4350347;32;20081;-72
2021/11/18 01:59:51;;;;;;;3.87;2.15;;;;;;;;;;4362828;32;20530;-73
2021/11/18 02:02:18;;;;;;;3.70;2.58;;;;;;;;;;4351057;32;20062;-72
2021/11/18 02:05:08;;;;;;;2.83;2.37;;;;;;;;;;4362590;32;20159;-72
2021/11/18 02:07:36;;;;;;;3.90;2.40;;;;;;;;;;4341630;32;20092;-72
2021/11/18 02:10:03;;;;;;;3.58;2.45;;;;;;;;;;4350494;32;20499;-72
2021/11/18 02:12:30;;;;;;;3.78;2.50;;;;;;;;;;4362908;32;20504;-73
2021/11/18 02:14:57;;;;;;;4.47;2.75;;;;;;;;;;4350117;32;20141;-73
2021/11/18 02:17:24;;;;;;;3.70;2.62;;;;;;;;;;4364224;32;20164;-73
2021/11/18 02:19:59;;;;;;;3.53;2.65;;;;;;;;;;4338184;32;20074;-73
2021/11/18 02:22:27;;;;;;;3.42;2.60;;;;;;;;;;4338120;32;20082;-73
2021/11/18 02:24:57;;;;;;;3.83;2.87;;;;;;;;;;4350800;32;20089;-72
2021/11/18 02:27:26;;;;;;;4.62;2.50;;;;;;;;;;4363928;32;20213;-71
2021/11/18 02:29:53;;;;;;;3.20;2.60;;;;;;;;;;4351669;32;20093;-73
2021/11/18 02:32:23;;;;;;;4.28;2.30;;;;;;;;;;4354699;32;20086;-73
2021/11/18 02:34:57;;;;;;;2.37;2.08;;;;;;;;;;4356062;32;20080;-73
2021/11/18 02:37:23;;;;;;;3.47;2.50;;;;;;;;;;4355176;32;20179;-72
2021/11/18 02:39:50;;;;;;;2.97;2.20;;;;;;;;;;4354994;32;20085;-72
2021/11/18 02:42:17;;;;;;;3.55;2.30;;;;;;;;;;4366614;32;20099;-73
2021/11/18 02:44:44;;;;;;;2.70;2.25;;;;;;;;;;4340214;32;20078;-73
2021/11/18 02:47:14;;;;;;;4.72;2.60;;;;;;;;;;4351933;32;20081;-73
2021/11/18 02:49:52;;;;;;;2.47;2.10;;;;;;;;;;4340392;32;20074;-72
2021/11/18 02:52:27;;;;;;;3.22;2.30;;;;;;;;;;4353547;32;20163;-74
2021/11/18 02:54:55;;;;;;;3.80;2.22;;;;;;;;;;4352631;32;20153;-72
2021/11/18 02:57:22;;;;;;;5.53;2.90;;;;;;;;;;4339621;32;20090;-73
2021/11/18 02:59:48;;;;;;;4.05;2.47;;;;;;;;;;4353704;32;20062;-73
2021/11/18 03:02:15;;;;;;;3.33;2.20;;;;;;;;;;4366724;32;20071;-73
2021/11/18 03:04:41;;;;;;;2.65;2.17;;;;;;;;;;4379708;32;20089;-72
2021/11/18 03:07:08;;;;;;;2.53;1.92;;;;;;;;;;4353088;32;20065;-73
2021/11/18 03:09:35;;;;;;;2.75;2.12;;;;;;;;;;4341004;32;20168;-73
2021/11/18 03:12:02;;;;;;;2.75;2.10;;;;;;;;;;4340771;32;20097;-71
2021/11/18 03:14:29;;;;;;;2.25;1.70;;;;;;;;;;4340422;32;20162;-72
2021/11/18 03:16:55;;;;;;;2.25;1.87;;;;;;;;;;4352355;32;20173;-73
2021/11/18 03:19:22;;;;;;;3.87;1.73;;;;;;;;;;4340809;32;20089;-73
2021/11/18 03:21:50;;;;;;;2.12;1.80;;;;;;;;;;4352918;32;20162;-72
2021/11/18 03:24:16;;;;;;;2.15;1.70;;;;;;;;;;4353894;32;20074;-73
2021/11/18 03:26:43;;;;;;;2.05;1.83;;;;;;;;;;4356149;32;20521;-73
2021/11/18 03:29:10;;;;;;;2.17;1.98;;;;;;;;;;4366112;32;20086;-71
2021/11/18 03:31:37;;;;;;;2.12;1.80;;;;;;;;;;4352497;32;20096;-73
2021/11/18 03:34:09;;;;;;;2.78;1.70;;;;;;;;;;4352738;32;20481;-73
2021/11/18 03:36:36;;;;;;;2.92;1.80;;;;;;;;;;4337175;32;20102;-73
2021/11/18 03:39:04;;;;;;;2.08;1.85;;;;;;;;;;4350163;32;20080;-73
2021/11/18 03:41:32;;;;;;;3.10;1.92;;;;;;;;;;4349569;32;20063;-72
2021/11/18 03:44:00;;;;;;;2.15;1.80;;;;;;;;;;4350400;32;20154;-72
2021/11/18 03:46:34;;;;;;;2.67;1.98;;;;;;;;;;4349999;32;20441;-72
2021/11/18 03:49:04;;;;;;;1.73;1.60;;;;;;;;;;4350016;32;20171;-73
2021/11/18 03:51:32;;;;;;;2.55;2.22;;;;;;;;;;4338319;32;20083;-74
2021/11/18 03:54:00;;;;;;;2.28;2.03;;;;;;;;;;4358843;32;20113;-73
2021/11/18 03:56:28;;;;;;;1.70;1.48;;;;;;;;;;4350328;32;20169;-74
2021/11/18 03:58:54;;;;;;;1.65;1.55;;;;;;;;;;4337574;32;20078;-72
2021/11/18 04:01:21;;;;;;;2.33;1.73;;;;;;;;;;4337261;32;20169;-73
2021/11/18 04:03:49;;;;;;;1.95;1.75;;;;;;;;;;4350154;32;20090;-74
2021/11/18 04:06:16;;;;;;;2.47;1.87;;;;;;;;;;4349467;32;20156;-72
2021/11/18 04:08:42;;;;;;;2.95;2.10;;;;;;;;;;4349190;32;20564;-73
2021/11/18 04:11:10;;;;;;;2.75;1.80;;;;;;;;;;4337171;32;20086;-72
2021/11/18 04:13:36;;;;;;;1.85;1.52;;;;;;;;;;4337363;32;20074;-72
2021/11/18 04:16:03;;;;;;;1.90;1.62;;;;;;;;;;4349071;32;20150;-73
2021/11/18 04:18:30;;;;;;;1.30;1.20;;;;;;;;;;4336654;32;20463;-74
2021/11/18 04:20:56;;;;;;;2.12;1.80;;;;;;;;;;4349297;32;20082;-73
2021/11/18 04:23:24;;;;;;;1.37;1.27;;;;;;;;;;4363366;32;20108;-73
2021/11/18 04:25:51;;;;;;;3.42;2.10;;;;;;;;;;4361669;32;20063;-73
2021/11/18 04:28:18;;;;;;;1.33;1.23;;;;;;;;;;4336943;32;20073;-73
2021/11/18 04:31:09;;;;;;;1.23;1.05;;;;;;;;;;4349149;32;20078;-74
2021/11/18 04:33:36;;;;;;;1.25;1.10;;;;;;;;;;4349032;32;20089;-73
2021/11/18 04:36:03;;;;;;;1.08;0.98;;;;;;;;;;4349296;32;20575;-73
2021/11/18 04:38:29;;;;;;;1.20;1.10;;;;;;;;;;4349311;32;20082;-73
2021/11/18 04:40:56;;;;;;;1.95;1.27;;;;;;;;;;4361809;32;20090;-72
2021/11/18 04:43:22;;;;;;;1.87;1.48;;;;;;;;;;4349221;32;20098;-73
2021/11/18 04:45:49;;;;;;;2.17;1.70;;;;;;;;;;4348973;32;20082;-72
2021/11/18 04:48:16;;;;;;;1.80;1.55;;;;;;;;;;4349143;32;20070;-72
2021/11/18 04:50:43;;;;;;;1.65;1.20;;;;;;;;;;4348681;32;20082;-72
2021/11/18 04:53:10;;;;;;;1.62;1.37;;;;;;;;;;4349111;32;20513;-74
2021/11/18 04:55:36;;;;;;;1.98;1.50;;;;;;;;;;4348470;32;20078;-71
2021/11/18 04:58:04;;;;;;;1.73;1.30;;;;;;;;;;4360791;32;20183;-71
2021/11/18 05:00:36;;;;;;;2.45;1.60;;;;;;;;;;4348675;32;20086;-72
2021/11/18 05:03:03;;;;;;;1.70;1.60;;;;;;;;;;4349102;32;20456;-73
2021/11/18 05:05:30;;;;;;;2.17;1.50;;;;;;;;;;4336729;32;20059;-70
2021/11/18 05:07:57;;;;;;;1.92;1.60;;;;;;;;;;4336100;32;20096;-72
2021/11/18 05:10:24;;;;;;;4.20;1.87;;;;;;;;;;4348697;32;20497;-74
2021/11/18 05:12:50;;;;;;;2.22;1.55;;;;;;;;;;4348418;32;20082;-69
2021/11/18 05:15:20;;;;;;;2.17;1.77;;;;;;;;;;4348131;32;20469;-69
2021/11/18 05:17:47;;;;;;;2.80;2.25;;;;;;;;;;4348198;32;20086;-73
2021/11/18 05:20:14;;;;;;;2.47;1.92;;;;;;;;;;4335953;32;20097;-72
2021/11/18 05:22:41;;;;;;;2.20;1.95;;;;;;;;;;4336155;32;20489;-72
2021/11/18 05:25:08;;;;;;;1.87;1.75;;;;;;;;;;4360766;32;20098;-70
2021/11/18 05:27:35;;;;;;;3.03;2.20;;;;;;;;;;4336346;32;20081;-73
2021/11/18 05:30:03;;;;;;;3.78;3.00;;;;;;;;;;4336435;32;20089;-73
2021/11/18 05:32:30;;;;;;;3.30;2.53;;;;;;;;;;4336048;32;20091;-74
2021/11/18 05:34:58;;;;;;;4.00;2.78;;;;;;;;;;4347875;32;20466;-71
2021/11/18 05:37:25;;;;;;;3.45;2.85;;;;;;;;;;4345559;32;20160;-72
2021/11/18 05:39:52;;;;;;;6.55;3.58;;;;;;;;;;4348452;32;20083;-73
2021/11/18 05:42:19;;;;;;;7.70;5.18;;;;;;;;;;4348242;32;20093;-73
2021/11/18 05:44:49;;;;;;;4.25;3.08;;;;;;;;;;4347994;32;20546;-73
2021/11/18 05:47:19;;;;;;;2.72;2.20;;;;;;;;;;4336289;32;20078;-72
2021/11/18 05:49:46;;;;;;;3.60;2.03;;;;;;;;;;4335930;32;20516;-73
2021/11/18 05:52:13;;;;;;;2.85;2.10;;;;;;;;;;4347888;32;20505;-72
2021/11/18 05:54:40;;;;;;;2.90;1.87;;;;;;;;;;4323191;32;20145;-72
2021/11/18 05:57:06;;;;;;;2.75;1.95;;;;;;;;;;4338596;32;20090;-74
2021/11/18 05:59:33;;;;;;;2.67;2.10;;;;;;;;;;4326304;32;20153;-72
2021/11/18 06:02:00;;;;;;;4.05;2.37;;;;;;;;;;4323611;32;20070;-70
2021/11/18 06:04:27;;;;;;;2.80;2.20;;;;;;;;;;4335664;32;20453;-70
2021/11/18 06:06:54;;;;;;;2.58;1.95;;;;;;;;;;4335476;32;20090;-71
2021/11/18 06:09:20;;;;;;;3.33;2.35;;;;;;;;;;4322876;32;20129;-71
2021/11/18 06:11:47;;;;;;;4.07;2.17;;;;;;;;;;4347706;32;20089;-71
2021/11/18 06:14:13;;;;;;;2.55;2.17;;;;;;;;;;4323149;32;20102;-70
2021/11/18 06:16:40;;;;;;;3.50;2.50;;;;;;;;;;4335695;32;20086;-72
2021/11/18 06:19:07;;;;;;;3.83;2.60;;;;;;;;;;4335949;32;20496;-72
2021/11/18 06:21:36;;;;;;;4.18;3.00;;;;;;;;;;4335844;32;20118;-71
2021/11/18 06:24:03;;;;;;;4.43;2.80;;;;;;;;;;4322972;32;20090;-71
2021/11/18 06:26:30;;;;;;;3.80;2.60;;;;;;;;;;4335453;32;20082;-71
2021/11/18 06:28:57;;;;;;;4.68;3.53;;;;;;;;;;4322656;32;20172;-72
2021/11/18 06:31:24;;;;;;;2.90;2.45;;;;;;;;;;4347053;32;20077;-72
2021/11/18 06:33:52;;;;;;;5.07;2.67;;;;;;;;;;4347747;32;20086;-71
2021/11/18 06:36:19;;;;;;;4.12;2.80;;;;;;;;;;4338075;32;20092;-71
2021/11/18 06:38:47;;;;;;;3.72;2.95;;;;;;;;;;4347630;32;20583;-71
2021/11/18 06:41:15;;;;;;;2.47;2.10;;;;;;;;;;4347234;32;20055;-71
2021/11/18 06:43:42;;;;;;;3.50;2.10;;;;;;;;;;4347416;32;20496;-72
2021/11/18 06:46:09;;;;;;;2.20;1.70;;;;;;;;;;4334746;32;20089;-72
2021/11/18 06:48:35;;;;;;;2.30;2.05;;;;;;;;;;4347271;32;20082;-71
2021/11/18 06:51:06;;;;;;;2.55;2.03;;;;;;;;;;4347097;32;20164;-72
2021/11/18 06:53:33;;;;;;;2.58;1.77;;;;;;;;;;4348539;32;20078;-71
2021/11/18 06:55:59;;;;;;;1.83;1.67;;;;;;;;;;4347743;32;20082;-72
2021/11/18 06:58:26;;;;;;;3.50;1.90;;;;;;;;;;4347619;32;20456;-71
2021/11/18 07:00:52;;;;;;;2.90;2.28;;;;;;;;;;4347444;32;20512;-72
2021/11/18 07:03:20;;;;;;;2.62;2.10;;;;;;;;;;4334630;32;20545;-71
2021/11/18 07:05:46;;;;;;;2.35;1.85;;;;;;;;;;4348492;32;20096;-71
2021/11/18 07:08:13;;;;;;;2.00;1.77;;;;;;;;;;4348042;32;20082;-72
2021/11/18 07:10:40;;;;;;;3.30;2.30;;;;;;;;;;4347554;32;20249;-71
2021/11/18 07:13:12;;;;;;;2.37;2.00;;;;;;;;;;4347088;32;20512;-71
2021/11/18 07:15:39;;;;;;;2.10;1.90;;;;;;;;;;4335206;32;20166;-72
2021/11/18 07:18:05;;;;;;;3.08;2.00;;;;;;;;;;4334511;32;20093;-71
2021/11/18 07:20:32;;;;;;;2.50;1.87;;;;;;;;;;4346915;32;20094;-72
2021/11/18 07:23:01;;;;;;;3.47;2.20;;;;;;;;;;4347206;32;20582;-71
2021/11/18 07:25:28;;;;;;;1.95;1.73;;;;;;;;;;4347512;32;20082;-71
2021/11/18 07:27:55;;;;;;;2.70;2.10;;;;;;;;;;4347433;32;20152;-72
2021/11/18 07:30:22;;;;;;;3.40;1.85;;;;;;;;;;4347441;32;20077;-71
2021/11/18 07:32:49;;;;;;;1.45;1.35;;;;;;;;;;4335768;32;20078;-71
2021/11/18 07:35:16;;;;;;;2.92;2.12;;;;;;;;;;4347403;32;20086;-71
2021/11/18 07:37:42;;;;;;;2.03;1.83;;;;;;;;;;4347467;32;20078;-70
2021/11/18 07:40:11;;;;;;;2.25;2.00;;;;;;;;;;4347279;32;20086;-72
2021/11/18 07:42:38;;;;;;;2.35;1.73;;;;;;;;;;4347817;32;20515;-70
2021/11/18 07:45:05;;;;;;;1.85;1.62;;;;;;;;;;4350011;32;20074;-71
2021/11/18 07:47:34;;;;;;;2.78;2.15;;;;;;;;;;4350203;32;20066;-71
2021/11/18 07:50:00;;;;;;;2.70;2.08;;;;;;;;;;4350144;32;20086;-72
2021/11/18 07:52:27;;;;;;;3.40;1.92;;;;;;;;;;4349705;32;20086;-70
2021/11/18 07:54:54;;;;;;;2.45;2.20;;;;;;;;;;4345508;32;20105;-72
2021/11/18 07:57:20;;;;;;;2.20;2.00;;;;;;;;;;4334679;33;20101;-71
2021/11/18 07:59:47;;;;;;;3.25;2.15;;;;;;;;;;4327664;32;20512;-72
2021/11/18 08:02:14;;;;;;;2.22;1.80;;;;;;;;;;4336011;32;20236;-73
2021/11/18 08:04:41;;;;;;;2.80;2.25;;;;;;;;;;4347268;32;20074;-71
2021/11/18 08:07:09;;;;;;;2.85;2.05;;;;;;;;;;4346503;32;20078;-75
2021/11/18 08:09:35;;;;;;;2.50;2.20;;;;;;;;;;4337157;32;20089;-73
2021/11/18 08:12:04;;;;;;;2.60;2.22;;;;;;;;;;4341882;32;20086;-68
2021/11/18 08:14:31;;;;;;;3.12;2.40;;;;;;;;;;4348288;32;20082;-72
2021/11/18 08:16:58;;;;;;;2.37;2.17;;;;;;;;;;4326392;32;20524;-72
2021/11/18 08:19:25;;;;;;;2.35;2.00;;;;;;;;;;4347221;33;20074;-69
2021/11/18 08:21:53;;;;;;;2.67;2.25;;;;;;;;;;4342131;33;20070;-71
2021/11/18 08:24:21;;;;;;;2.70;1.90;;;;;;;;;;4322734;32;20062;-73
2021/11/18 08:26:48;;;;;;;3.53;1.98;;;;;;;;;;4325183;32;20478;-71
2021/11/18 08:29:16;;;;;;;6.03;2.85;;;;;;;;;;4337922;32;20098;-73
2021/11/18 08:31:43;;;;;;;2.60;1.87;;;;;;;;;;4331838;32;20500;-76
2021/11/18 08:34:10;;;;;;;3.22;2.12;;;;;;;;;;4334345;32;20081;-76
2021/11/18 08:36:37;;;;;;;2.83;1.85;;;;;;;;;;4333268;32;20173;-76
2021/11/18 08:39:10;;;;;;;3.03;2.20;;;;;;;;;;4343298;32;20079;-75
2021/11/18 08:41:37;;;;;;;3.62;1.83;;;;;;;;;;4329652;32;20095;-75
2021/11/18 08:44:04;;;;;;;2.50;2.00;;;;;;;;;;4319729;32;20082;-71
2021/11/18 08:46:31;;;;;;;2.75;2.30;;;;;;;;;;4339003;32;20078;-72
2021/11/18 08:49:01;;;;;;;3.55;2.17;;;;;;;;;;4345150;32;20082;-71
2021/11/18 08:51:29;;;;;;;4.37;2.12;;;;;;;;;;4344956;32;20500;-74
2021/11/18 08:53:56;;;;;;;2.60;2.15;;;;;;;;;;4334694;32;20187;-74
2021/11/18 08:56:23;;;;;;;2.65;2.17;;;;;;;;;;4340491;32;20078;-74
2021/11/18 08:58:56;;;;;;;3.20;2.40;;;;;;;;;;4335574;32;20075;-77
2021/11/18 09:01:30;;;;;;;2.47;2.12;;;;;;;;;;4324145;32;20541;-76
2021/11/18 09:04:01;;;;;;;2.45;2.03;;;;;;;;;;4340897;32;20536;-75
2021/11/18 09:06:28;;;;;;;2.65;2.45;;;;;;;;;;4339665;33;20083;-74
2021/11/18 09:08:54;;;;;;;3.37;2.53;;;;;;;;;;4341490;33;20552;-75
2021/11/18 09:11:21;;;;;;;3.17;2.50;;;;;;;;;;4323732;32;20097;-77
2021/11/18 09:13:48;;;;;;;3.00;2.30;;;;;;;;;;4332757;32;20113;-75
2021/11/18 09:16:15;;;;;;;3.28;2.33;;;;;;;;;;4327385;33;20082;-74
2021/11/18 09:18:42;;;;;;;3.08;2.45;;;;;;;;;;4318992;32;20137;-74
2021/11/18 09:21:11;;;;;;;3.40;2.45;;;;;;;;;;4335407;32;20084;-79
2021/11/18 09:23:44;;;;;;;3.80;2.83;;;;;;;;;;4308352;33;20078;-77
2021/11/18 09:26:11;;;;;;;3.42;2.55;;;;;;;;;;4340470;32;20528;-74
2021/11/18 09:28:38;;;;;;;3.80;2.72;;;;;;;;;;4301656;33;20075;-74
2021/11/18 09:31:06;;;;;;;2.75;2.45;;;;;;;;;;4332799;32;20079;-74
2021/11/18 09:33:33;;;;;;;3.40;2.40;;;;;;;;;;4320939;32;20090;-73
2021/11/18 09:36:02;;;;;;;3.78;2.62;;;;;;;;;;4334320;32;20559;-74
2021/11/18 09:38:30;;;;;;;3.53;2.60;;;;;;;;;;4335673;32;20162;-75
2021/11/18 09:40:59;;;;;;;3.58;2.83;;;;;;;;;;4346431;32;20179;-70
2021/11/18 09:43:25;;;;;;;4.80;2.60;;;;;;;;;;4342818;32;20490;-77
2021/11/18 09:46:20;;;;;;;2.80;2.40;;;;;;;;;;4346187;32;20159;-76
2021/11/18 09:49:09;;;;;;;2.87;2.53;;;;;;;;;;4360604;32;20106;-74
2021/11/18 09:51:59;;;;;;;3.55;2.30;;;;;;;;;;4334411;32;20079;-75
2021/11/18 09:54:49;;;;;;;3.17;2.58;;;;;;;;;;4347634;32;20425;-75
2021/11/18 09:57:33;;;;;;;3.85;2.58;;;;;;;;;;4347592;32;20094;-76
2021/11/18 10:00:15;;;;;;;3.50;2.67;;;;;;;;;;4337547;32;20097;-75
2021/11/18 10:03:02;;;;;;;3.87;3.05;;;;;;;;;;4347187;32;20093;-75
2021/11/18 10:05:56;;;;;;;4.10;2.65;;;;;;;;;;4349988;32;20073;-77
2021/11/18 10:08:27;;;;;;;3.87;2.78;;;;;;;;;;4361938;32;20086;-77
2021/11/18 10:11:17;;;;;;;4.97;2.65;;;;;;;;;;4336106;32;20090;-78
2021/11/18 10:14:21;;;;;;;4.22;2.55;;;;;;;;;;4336985;32;20085;-76
2021/11/18 10:16:54;;;;;;;3.10;2.50;;;;;;;;;;4351094;32;20069;-75
2021/11/18 10:19:35;;;;;;;3.95;2.70;;;;;;;;;;4338136;32;20136;-75
2021/11/18 10:22:02;;;;;;;3.33;2.70;;;;;;;;;;4336133;32;20066;-76
2021/11/18 10:24:32;;;;;;;3.78;2.90;;;;;;;;;;4335803;32;20070;-76
2021/11/18 10:27:29;;;;;;;3.47;2.80;;;;;;;;;;4336940;32;20105;-75
2021/11/18 10:30:09;;;;;;;4.35;2.92;;;;;;;;;;4319473;32;20090;-77
2021/11/18 10:33:04;;;;;;;3.92;2.45;;;;;;;;;;4348804;32;20101;-76
2021/11/18 10:35:44;;;;;;;3.53;2.92;;;;;;;;;;4324251;32;20308;-76
2021/11/18 10:38:21;;;;;;;4.30;3.00;;;;;;;;;;4338566;32;20152;-78
2021/11/18 10:41:01;;;;;;;4.90;2.90;;;;;;;;;;4339030;32;20449;-77
2021/11/18 10:43:31;;;;;;;4.68;2.90;;;;;;;;;;4338685;32;20105;-76
2021/11/18 10:46:19;;;;;;;5.60;3.10;;;;;;;;;;4350231;32;20150;-76
2021/11/18 10:49:06;;;;;;;2.83;2.53;;;;;;;;;;4362347;32;20154;-77
2021/11/18 10:51:41;;;;;;;5.65;3.28;;;;;;;;;;4362459;32;20070;-77
2021/11/18 10:54:12;;;;;;;3.93;2.80;;;;;;;;;;4362295;32;20180;-77
2021/11/18 10:56:49;;;;;;;3.67;2.60;;;;;;;;;;4350931;32;20074;-77
2021/11/18 10:59:30;;;;;;;3.40;2.72;;;;;;;;;;4350437;32;20195;-76
2021/11/18 11:01:58;;;;;;;3.65;2.92;;;;;;;;;;4365714;32;20169;-77
2021/11/18 11:04:55;;;;;;;2.95;2.42;;;;;;;;;;4339654;32;20146;-76
2021/11/18 11:07:40;;;;;;;4.20;2.40;;;;;;;;;;4349938;32;20178;-75
2021/11/18 11:10:12;;;;;;;3.42;2.60;;;;;;;;;;4351308;32;20102;-76
2021/11/18 11:13:02;;;;;;;5.57;2.60;;;;;;;;;;4338683;32;20153;-78
2021/11/18 11:15:41;;;;;;;3.03;2.55;;;;;;;;;;4359964;32;20437;-77
2021/11/18 11:18:38;;;;;;;3.03;2.30;;;;;;;;;;4375879;32;20074;-77
2021/11/18 11:21:28;;;;;;;3.92;2.60;;;;;;;;;;4367570;32;20116;-77
2021/11/18 11:24:44;;;;;;;3.62;2.65;;;;;;;;;;4378767;32;20074;-76
2021/11/18 11:27:48;;;;;;;3.87;3.12;;;;;;;;;;4350217;32;20082;-77
2021/11/18 11:30:18;;;;;;;4.53;2.95;;;;;;;;;;4347683;32;20489;-76
2021/11/18 11:32:51;;;;;;;3.55;2.80;;;;;;;;;;4364514;32;20073;-77
2021/11/18 11:35:37;;;;;;;2.97;2.45;;;;;;;;;;4340725;32;20081;-75
2021/11/18 11:38:25;;;;;;;4.20;2.80;;;;;;;;;;4374594;32;20090;-76
2021/11/18 11:41:11;;;;;;;2.90;2.50;;;;;;;;;;4350313;32;20086;-77
2021/11/18 11:43:57;;;;;;;3.87;2.70;;;;;;;;;;4363818;32;20150;-76
2021/11/18 11:46:44;;;;;;;5.18;2.90;;;;;;;;;;4361601;32;20114;-77
2021/11/18 11:49:20;;;;;;;4.75;2.75;;;;;;;;;;4349661;32;20511;-77
2021/11/18 11:52:40;;;;;;;4.45;2.95;;;;;;;;;;4350577;32;20078;-76
2021/11/18 11:55:17;;;;;;;3.60;2.65;;;;;;;;;;4324990;33;20075;-78
2021/11/18 11:57:49;;;;;;;4.30;2.70;;;;;;;;;;4347047;33;20207;-79
2021/11/18 12:00:26;;;;;;;3.55;2.78;;;;;;;;;;4350639;32;20241;-74
2021/11/18 12:03:10;;;;;;;3.85;2.83;;;;;;;;;;4345003;32;20446;-74
2021/11/18 12:05:54;;;;;;;5.45;3.05;;;;;;;;;;4339381;32;20512;-74
2021/11/18 12:08:44;;;;;;;4.45;2.62;;;;;;;;;;4361818;32;20525;-75
2021/11/18 12:11:37;;;;;;;2.87;2.20;;;;;;;;;;4354877;32;20071;-75
2021/11/18 12:14:07;;;;;;;4.07;2.60;;;;;;;;;;4349876;32;20232;-75
2021/11/18 12:16:51;;;;;;;3.87;2.90;;;;;;;;;;4361830;32;20075;-73
2021/11/18 12:19:35;;;;;;;3.12;2.35;;;;;;;;;;4355170;32;20086;-73
2021/11/18 12:22:27;;;;;;;2.33;1.77;;;;;;;;;;4357169;32;20201;-75
2021/11/18 12:25:19;;;;;;;3.47;2.60;;;;;;;;;;4352786;32;20195;-77
2021/11/18 12:28:04;;;;;;;4.43;2.80;;;;;;;;;;4349355;32;20520;-76
2021/11/18 12:30:35;;;;;;;3.67;2.83;;;;;;;;;;4352023;32;20109;-75
2021/11/18 12:33:11;;;;;;;4.25;2.70;;;;;;;;;;4355875;32;20146;-71
2021/11/18 12:35:48;;;;;;;4.00;2.83;;;;;;;;;;4340397;32;20532;-71
2021/11/18 12:38:33;;;;;;;5.37;3.15;;;;;;;;;;4354620;32;20090;-72
2021/11/18 12:41:30;;;;;;;4.62;3.10;;;;;;;;;;4359531;32;20073;-73
2021/11/18 12:44:10;;;;;;;5.90;4.20;;;;;;;;;;4347665;32;20067;-73
2021/11/18 12:47:13;;;;;;;7.68;5.57;;;;;;;;;;4316301;32;20090;-72
2021/11/18 12:49:52;;;;;;;6.72;4.20;;;;;;;;;;4352920;32;20090;-74
2021/11/18 12:52:30;;;;;;;6.80;4.47;;;;;;;;;;4352181;32;20090;-74
2021/11/18 12:55:13;;;;;;;7.50;5.10;;;;;;;;;;4343367;32;20086;-75
2021/11/18 12:57:49;;;;;;;5.70;3.85;;;;;;;;;;4350624;32;20571;-73
2021/11/18 13:00:20;;;;;;;6.12;3.70;;;;;;;;;;4342769;32;20161;-74
2021/11/18 13:02:55;;;;;;;7.12;5.07;;;;;;;;;;4362794;32;20070;-73
2021/11/18 13:05:22;;;;;;;7.72;4.87;;;;;;;;;;4342990;32;20078;-78
2021/11/18 13:07:49;;;;;;;7.85;4.93;;;;;;;;;;4365486;32;20149;-75
2021/11/18 13:10:34;;;;;;;6.28;4.65;;;;;;;;;;3839174;37;20046;-76
2021/11/18 13:13:02;;;;;;;6.75;4.65;;;;;;;;;;4380508;32;20093;-75
2021/11/18 13:15:44;;;;;;;7.87;6.00;;;;;;;;;;4377973;32;20097;-74
2021/11/18 13:18:26;;;;;;;8.20;5.70;;;;;;;;;;4403424;32;20451;-74
2021/11/18 13:20:56;;;;;;;7.45;5.70;;;;;;;;;;4399470;32;20109;-76
2021/11/18 13:23:26;;;;;;;9.10;5.85;;;;;;;;;;4412941;32;20111;-75
2021/11/18 13:25:54;;;;;;;7.85;5.35;;;;;;;;;;4376266;32;20081;-75
2021/11/18 13:29:00;;;;;;;6.85;4.97;;;;;;;;;;4374254;32;20168;-77
2021/11/18 13:31:33;;;;;;;10.18;5.93;;;;;;;;;;4388460;32;20076;-76
2021/11/18 13:34:30;;;;;;;8.10;5.82;;;;;;;;;;4379430;32;20062;-75
2021/11/18 13:37:04;;;;;;;7.87;5.30;;;;;;;;;;4375299;32;20177;-74
2021/11/18 13:39:38;;;;;;;8.55;6.53;;;;;;;;;;4353666;32;20600;-74
2021/11/18 13:42:27;;;;;;;8.70;5.87;;;;;;;;;;4365708;32;20069;-75
2021/11/18 13:45:14;;;;;;;6.55;4.70;;;;;;;;;;4404256;32;20078;-74
2021/11/18 13:47:53;;;;;;;7.28;4.68;;;;;;;;;;4389855;32;20491;-74
2021/11/18 13:50:32;;;;;;;7.37;5.15;;;;;;;;;;4375805;32;20081;-77
2021/11/18 13:53:17;;;;;;;7.10;4.97;;;;;;;;;;4366283;32;20077;-72
2021/11/18 13:55:54;;;;;;;6.62;4.68;;;;;;;;;;4366398;32;20518;-71
2021/11/18 13:58:54;;;;;;;5.82;4.50;;;;;;;;;;4365193;32;20112;-76
2021/11/18 14:01:25;;;;;;;7.70;4.03;;;;;;;;;;4396370;32;20077;-75
2021/11/18 14:03:55;;;;;;;6.47;4.68;;;;;;;;;;4350343;32;20066;-79
2021/11/18 14:06:24;;;;;;;6.75;4.40;;;;;;;;;;4363656;32;20084;-79
2021/11/18 14:08:55;;;;;;;6.28;3.85;;;;;;;;;;4363170;32;20161;-77
2021/11/18 14:11:26;;;;;;;6.30;4.40;;;;;;;;;;4357769;32;20100;-79
2021/11/18 14:13:57;;;;;;;7.43;4.40;;;;;;;;;;4364504;32;20142;-75
2021/11/18 14:16:34;;;;;;;7.82;4.50;;;;;;;;;;4361469;32;20083;-77
2021/11/18 14:19:26;;;;;;;7.30;4.78;;;;;;;;;;4364084;32;20074;-76
2021/11/18 14:22:01;;;;;;;6.37;5.00;;;;;;;;;;4353963;32;20076;-77
2021/11/18 14:24:38;;;;;;;7.03;5.07;;;;;;;;;;4346125;32;20089;-77
2021/11/18 14:27:05;;;;;;;6.85;5.05;;;;;;;;;;4373846;32;20161;-74
2021/11/18 14:29:43;;;;;;;7.15;4.65;;;;;;;;;;4386630;32;20100;-73
2021/11/18 14:32:14;;;;;;;7.18;4.37;;;;;;;;;;4360900;32;20085;-77
2021/11/18 14:34:58;;;;;;;8.73;4.65;;;;;;;;;;4359018;32;20105;-77
2021/11/18 14:37:52;;;;;;;7.80;4.60;;;;;;;;;;4376953;32;20157;-74
2021/11/18 14:40:39;;;;;;;7.40;4.80;;;;;;;;;;4332738;32;20480;-76
2021/11/18 14:43:15;;;;;;;6.97;4.68;;;;;;;;;;4376337;32;20483;-72
2021/11/18 14:45:43;;;;;;;7.07;4.90;;;;;;;;;;4345114;32;20077;-76
2021/11/18 14:48:30;;;;;;;7.87;4.65;;;;;;;;;;4331316;32;20081;-72
2021/11/18 14:50:58;;;;;;;;;;;;;;;;;;4352612;32;20105;-77
2021/11/18 14:53:29;;;;;;;7.15;4.95;;;;;;;;;;4372584;32;19961;-75
2021/11/18 14:56:31;;;;;;;9.15;5.80;;;;;;;;;;4361701;32;20077;-75
2021/11/18 14:59:02;;;;;;;7.57;5.68;;;;;;;;;;4390342;32;20109;-79
2021/11/18 15:01:42;;;;;;;8.32;5.70;;;;;;;;;;4366512;32;20565;-79
2021/11/18 15:04:08;;;;;;;8.15;5.75;;;;;;;;;;4378988;32;20087;-78
2021/11/18 15:06:38;;;;;;;7.43;5.57;;;;;;;;;;4371017;32;20093;-77
2021/11/18 15:09:17;;;;;;;7.97;5.40;;;;;;;;;;4342068;32;20157;-77
2021/11/18 15:11:45;;;;;;;7.28;5.30;;;;;;;;;;4354953;32;20085;-76
2021/11/18 15:14:12;;;;;;;8.10;5.43;;;;;;;;;;4378909;32;20075;-77